sensor_id;sensor_type;location;lat;lon;timestamp;pressure;altitude;pressure_sealevel;temperature;humidity
61710;BME280;47633;51.494;5.386;2023-02-03T00:01:54;102429.88;;;19.11;43.58
61710;BME280;47633;51.494;5.386;2023-02-03T00:04:19;102430.81;;;19.10;43.70
61710;BME280;47633;51.494;5.386;2023-02-03T00:06:45;102425.72;;;19.07;43.47
61710;BME280;47633;51.494;5.386;2023-02-03T00:09:11;102431.09;;;19.06;43.85
61710;BME280;47633;51.494;5.386;2023-02-03T00:11:36;102437.16;;;19.08;43.59
61710;BME280;47633;51.494;5.386;2023-02-03T00:14:02;102432.03;;;19.05;43.47
61710;BME280;47633;51.494;5.386;2023-02-03T00:16:29;102431.94;;;19.06;43.60
61710;BME280;47633;51.494;5.386;2023-02-03T00:18:54;102441.84;;;19.02;43.46
61710;BME280;47633;51.494;5.386;2023-02-03T00:21:20;102441.75;;;19.04;43.26
61710;BME280;47633;51.494;5.386;2023-02-03T00:23:45;102434.13;;;18.99;43.51
61710;BME280;47633;51.494;5.386;2023-02-03T00:26:13;102449.09;;;18.99;43.51
61710;BME280;47633;51.494;5.386;2023-02-03T00:28:39;102453.47;;;19.00;43.64
61710;BME280;47633;51.494;5.386;2023-02-03T00:31:05;102450.81;;;19.00;43.44
61710;BME280;47633;51.494;5.386;2023-02-03T00:33:30;102452.63;;;18.99;43.25
61710;BME280;47633;51.494;5.386;2023-02-03T00:35:58;102451.09;;;18.95;43.48
61710;BME280;47633;51.494;5.386;2023-02-03T00:38:26;102446.25;;;18.88;43.31
61710;BME280;47633;51.494;5.386;2023-02-03T00:40:53;102465.13;;;18.96;43.48
61710;BME280;47633;51.494;5.386;2023-02-03T00:43:19;102471.28;;;18.96;43.43
61710;BME280;47633;51.494;5.386;2023-02-03T00:45:44;102457.47;;;18.91;43.39
61710;BME280;47633;51.494;5.386;2023-02-03T00:48:09;102460.81;;;18.95;43.38
61710;BME280;47633;51.494;5.386;2023-02-03T00:50:35;102455.63;;;18.93;43.54
61710;BME280;47633;51.494;5.386;2023-02-03T00:53:00;102460.91;;;18.93;43.31
61710;BME280;47633;51.494;5.386;2023-02-03T00:55:25;102448.16;;;18.85;43.39
61710;BME280;47633;51.494;5.386;2023-02-03T00:57:50;102455.72;;;18.92;43.26
61710;BME280;47633;51.494;5.386;2023-02-03T01:00:17;102469.84;;;18.91;43.17
61710;BME280;47633;51.494;5.386;2023-02-03T01:02:43;102478.78;;;18.88;43.33
61710;BME280;47633;51.494;5.386;2023-02-03T01:05:08;102472.56;;;18.89;43.29
61710;BME280;47633;51.494;5.386;2023-02-03T01:07:34;102488.53;;;18.88;43.42
61710;BME280;47633;51.494;5.386;2023-02-03T01:09:59;102486.72;;;18.88;43.52
61710;BME280;47633;51.494;5.386;2023-02-03T01:12:24;102484.16;;;18.87;43.29
61710;BME280;47633;51.494;5.386;2023-02-03T01:14:50;102485.97;;;18.86;43.33
61710;BME280;47633;51.494;5.386;2023-02-03T01:17:15;102484.44;;;18.82;43.33
61710;BME280;47633;51.494;5.386;2023-02-03T01:19:40;102476.69;;;18.79;43.06
61710;BME280;47633;51.494;5.386;2023-02-03T01:22:06;102492.34;;;18.82;43.46
61710;BME280;47633;51.494;5.386;2023-02-03T01:24:31;102495.84;;;18.82;43.39
61710;BME280;47633;51.494;5.386;2023-02-03T01:26:56;102482.72;;;18.81;43.24
61710;BME280;47633;51.494;5.386;2023-02-03T01:29:21;102488.84;;;18.81;43.22
61710;BME280;47633;51.494;5.386;2023-02-03T01:31:47;102473.94;;;18.80;43.21
61710;BME280;47633;51.494;5.386;2023-02-03T01:34:13;102459.38;;;18.73;43.09
61710;BME280;47633;51.494;5.386;2023-02-03T01:36:40;102460.13;;;18.75;43.09
61710;BME280;47633;51.494;5.386;2023-02-03T01:39:06;102462.78;;;18.75;43.23
61710;BME280;47633;51.494;5.386;2023-02-03T01:41:34;102459.22;;;18.76;43.17
61710;BME280;47633;51.494;5.386;2023-02-03T01:44:00;102462.03;;;18.73;43.12
61710;BME280;47633;51.494;5.386;2023-02-03T01:46:34;102454.03;;;18.75;43.16
61710;BME280;47633;51.494;5.386;2023-02-03T01:49:07;102449.84;;;18.71;43.25
61710;BME280;47633;51.494;5.386;2023-02-03T01:51:37;102441.44;;;18.64;43.24
61710;BME280;47633;51.494;5.386;2023-02-03T01:54:06;102452.69;;;18.67;43.19
61710;BME280;47633;51.494;5.386;2023-02-03T01:56:35;102458.72;;;18.70;43.00
61710;BME280;47633;51.494;5.386;2023-02-03T01:59:02;102459.47;;;18.72;43.10
61710;BME280;47633;51.494;5.386;2023-02-03T02:01:28;102450.97;;;18.66;43.06
61710;BME280;47633;51.494;5.386;2023-02-03T02:03:56;102440.50;;;18.65;43.14
61710;BME280;47633;51.494;5.386;2023-02-03T02:06:22;102442.97;;;18.68;42.87
61710;BME280;47633;51.494;5.386;2023-02-03T02:08:50;102424.66;;;18.65;43.07
61710;BME280;47633;51.494;5.386;2023-02-03T02:11:17;102413.91;;;18.68;43.02
61710;BME280;47633;51.494;5.386;2023-02-03T02:13:44;102398.34;;;18.63;43.07
61710;BME280;47633;51.494;5.386;2023-02-03T02:25:03;102435.22;;;18.65;42.99
61710;BME280;47633;51.494;5.386;2023-02-03T02:36:33;102425.78;;;18.61;43.08
61710;BME280;47633;51.494;5.386;2023-02-03T02:39:13;102432.75;;;18.62;42.63
61710;BME280;47633;51.494;5.386;2023-02-03T02:41:47;102433.03;;;18.57;42.74
61710;BME280;47633;51.494;5.386;2023-02-03T02:44:22;102436.94;;;18.66;42.83
61710;BME280;47633;51.494;5.386;2023-02-03T02:47:04;102444.16;;;18.62;42.73
61710;BME280;47633;51.494;5.386;2023-02-03T02:49:35;102455.88;;;18.58;42.70
61710;BME280;47633;51.494;5.386;2023-02-03T02:52:04;102440.94;;;18.57;42.63
61710;BME280;47633;51.494;5.386;2023-02-03T02:54:32;102431.22;;;18.58;42.64
61710;BME280;47633;51.494;5.386;2023-02-03T02:57:03;102418.91;;;18.58;42.78
61710;BME280;47633;51.494;5.386;2023-02-03T02:59:29;102423.31;;;18.58;42.72
61710;BME280;47633;51.494;5.386;2023-02-03T03:01:54;102419.06;;;18.55;42.65
61710;BME280;47633;51.494;5.386;2023-02-03T03:04:25;102423.47;;;18.55;42.60
61710;BME280;47633;51.494;5.386;2023-02-03T03:07:00;102419.34;;;18.51;42.82
61710;BME280;47633;51.494;5.386;2023-02-03T03:09:33;102421.00;;;18.52;42.81
61710;BME280;47633;51.494;5.386;2023-02-03T03:12:28;102431.41;;;18.55;42.60
61710;BME280;47633;51.494;5.386;2023-02-03T03:14:55;102430.66;;;18.53;42.55
61710;BME280;47633;51.494;5.386;2023-02-03T03:17:25;102425.38;;;18.53;42.74
61710;BME280;47633;51.494;5.386;2023-02-03T03:19:59;102414.97;;;18.49;42.66
61710;BME280;47633;51.494;5.386;2023-02-03T03:22:29;102423.56;;;18.53;42.91
61710;BME280;47633;51.494;5.386;2023-02-03T03:25:16;102403.50;;;18.51;42.71
61710;BME280;47633;51.494;5.386;2023-02-03T03:27:48;102417.53;;;18.51;42.51
61710;BME280;47633;51.494;5.386;2023-02-03T03:30:17;102415.06;;;18.48;42.75
61710;BME280;47633;51.494;5.386;2023-02-03T03:32:44;102416.69;;;18.51;42.59
61710;BME280;47633;51.494;5.386;2023-02-03T03:35:10;102401.03;;;18.47;42.37
61710;BME280;47633;51.494;5.386;2023-02-03T03:37:41;102400.94;;;18.49;42.66
61710;BME280;47633;51.494;5.386;2023-02-03T03:40:17;102396.69;;;18.46;42.44
61710;BME280;47633;51.494;5.386;2023-02-03T03:42:49;102388.75;;;18.46;42.46
61710;BME280;47633;51.494;5.386;2023-02-03T03:47:52;102380.84;;;18.46;42.44
61710;BME280;47633;51.494;5.386;2023-02-03T03:50:22;102379.34;;;18.42;42.42
61710;BME280;47633;51.494;5.386;2023-02-03T03:52:50;102380.09;;;18.44;42.28
61710;BME280;47633;51.494;5.386;2023-02-03T03:55:18;102391.50;;;18.45;42.76
61710;BME280;47633;51.494;5.386;2023-02-03T03:57:54;102410.94;;;18.44;42.51
61710;BME280;47633;51.494;5.386;2023-02-03T04:00:24;102409.22;;;18.43;42.37
61710;BME280;47633;51.494;5.386;2023-02-03T04:02:53;102400.38;;;18.44;42.40
61710;BME280;47633;51.494;5.386;2023-02-03T04:05:20;102412.88;;;18.40;42.13
61710;BME280;47633;51.494;5.386;2023-02-03T04:07:46;102416.28;;;18.42;42.44
61710;BME280;47633;51.494;5.386;2023-02-03T04:10:29;102425.06;;;18.43;42.44
61710;BME280;47633;51.494;5.386;2023-02-03T04:12:55;102425.06;;;18.43;42.28
61710;BME280;47633;51.494;5.386;2023-02-03T04:15:20;102425.41;;;18.37;42.37
61710;BME280;47633;51.494;5.386;2023-02-03T04:17:46;102429.50;;;18.42;42.25
61710;BME280;47633;51.494;5.386;2023-02-03T04:20:12;102418.94;;;18.42;42.44
61710;BME280;47633;51.494;5.386;2023-02-03T04:22:37;102419.13;;;18.39;42.43
61710;BME280;47633;51.494;5.386;2023-02-03T04:25:03;102430.41;;;18.41;42.16
61710;BME280;47633;51.494;5.386;2023-02-03T04:27:28;102435.69;;;18.41;42.23
61710;BME280;47633;51.494;5.386;2023-02-03T04:29:53;102430.50;;;18.40;42.28
61710;BME280;47633;51.494;5.386;2023-02-03T04:32:19;102447.09;;;18.42;42.36
61710;BME280;47633;51.494;5.386;2023-02-03T04:34:44;102441.16;;;18.38;42.39
61710;BME280;47633;51.494;5.386;2023-02-03T04:37:10;102435.03;;;18.38;42.43
61710;BME280;47633;51.494;5.386;2023-02-03T04:39:35;102428.13;;;18.35;42.40
61710;BME280;47633;51.494;5.386;2023-02-03T04:42:00;102434.06;;;18.39;42.41
61710;BME280;47633;51.494;5.386;2023-02-03T04:44:25;102427.88;;;18.40;42.12
61710;BME280;47633;51.494;5.386;2023-02-03T04:46:51;102421.16;;;18.34;42.28
61710;BME280;47633;51.494;5.386;2023-02-03T04:49:16;102434.25;;;18.36;42.19
61710;BME280;47633;51.494;5.386;2023-02-03T04:51:42;102425.59;;;18.34;42.31
61710;BME280;47633;51.494;5.386;2023-02-03T04:54:08;102421.84;;;18.38;42.00
61710;BME280;47633;51.494;5.386;2023-02-03T04:56:34;102420.13;;;18.37;42.47
61710;BME280;47633;51.494;5.386;2023-02-03T04:58:59;102417.47;;;18.37;42.22
61710;BME280;47633;51.494;5.386;2023-02-03T05:01:24;102413.25;;;18.34;41.97
61710;BME280;47633;51.494;5.386;2023-02-03T05:03:50;102403.72;;;18.31;42.03
61710;BME280;47633;51.494;5.386;2023-02-03T05:06:15;102407.19;;;18.32;42.26
61710;BME280;47633;51.494;5.386;2023-02-03T05:08:40;102393.16;;;18.31;42.21
61710;BME280;47633;51.494;5.386;2023-02-03T05:11:06;102405.22;;;18.36;42.17
61710;BME280;47633;51.494;5.386;2023-02-03T05:13:31;102404.56;;;18.32;41.97
61710;BME280;47633;51.494;5.386;2023-02-03T05:15:56;102405.34;;;18.34;42.31
61710;BME280;47633;51.494;5.386;2023-02-03T05:18:21;102411.63;;;18.31;42.14
61710;BME280;47633;51.494;5.386;2023-02-03T05:20:47;102395.97;;;18.28;42.09
61710;BME280;47633;51.494;5.386;2023-02-03T05:23:12;102422.09;;;18.33;42.35
61710;BME280;47633;51.494;5.386;2023-02-03T05:25:37;102421.34;;;18.31;42.00
61710;BME280;47633;51.494;5.386;2023-02-03T05:28:03;102414.44;;;18.28;42.09
61710;BME280;47633;51.494;5.386;2023-02-03T05:30:28;102427.47;;;18.31;42.08
61710;BME280;47633;51.494;5.386;2023-02-03T05:32:53;102432.75;;;18.31;42.08
61710;BME280;47633;51.494;5.386;2023-02-03T05:35:19;102429.44;;;18.28;42.11
61710;BME280;47633;51.494;5.386;2023-02-03T05:37:44;102432.91;;;18.28;42.30
61710;BME280;47633;51.494;5.386;2023-02-03T05:40:11;102445.19;;;18.29;41.96
61710;BME280;47633;51.494;5.386;2023-02-03T05:42:55;102442.63;;;18.28;42.13
61710;BME280;47633;51.494;5.386;2023-02-03T05:45:20;102444.31;;;18.29;42.02
61710;BME280;47633;51.494;5.386;2023-02-03T05:47:46;102463.75;;;18.28;41.93
61710;BME280;47633;51.494;5.386;2023-02-03T05:50:11;102450.56;;;18.28;42.01
61710;BME280;47633;51.494;5.386;2023-02-03T05:52:36;102454.13;;;18.27;42.22
61710;BME280;47633;51.494;5.386;2023-02-03T05:55:02;102445.69;;;18.20;42.22
61710;BME280;47633;51.494;5.386;2023-02-03T05:57:27;102448.09;;;18.25;42.12
61710;BME280;47633;51.494;5.386;2023-02-03T05:59:52;102435.81;;;18.24;41.85
61710;BME280;47633;51.494;5.386;2023-02-03T06:02:17;102444.47;;;18.26;41.96
61710;BME280;47633;51.494;5.386;2023-02-03T06:04:43;102447.91;;;18.28;41.62
61710;BME280;47633;51.494;5.386;2023-02-03T06:07:08;102446.28;;;18.25;42.00
61710;BME280;47633;51.494;5.386;2023-02-03T06:09:34;102446.03;;;18.30;42.17
61710;BME280;47633;51.494;5.386;2023-02-03T06:11:59;102436.41;;;18.29;42.38
61710;BME280;47633;51.494;5.386;2023-02-03T06:14:25;102430.09;;;18.31;42.22
61710;BME280;47633;51.494;5.386;2023-02-03T06:16:52;102439.72;;;18.33;42.42
61710;BME280;47633;51.494;5.386;2023-02-03T06:19:17;102444.53;;;18.40;42.18
61710;BME280;47633;51.494;5.386;2023-02-03T06:21:42;102439.28;;;18.40;42.24
61710;BME280;47633;51.494;5.386;2023-02-03T06:24:09;102449.47;;;18.46;42.25
61710;BME280;47633;51.494;5.386;2023-02-03T06:26:35;102446.75;;;18.48;42.33
61710;BME280;47633;51.494;5.386;2023-02-03T06:29:00;102448.19;;;18.54;42.06
61710;BME280;47633;51.494;5.386;2023-02-03T06:31:25;102448.88;;;18.57;42.08
61710;BME280;47633;51.494;5.386;2023-02-03T06:33:51;102452.34;;;18.58;42.01
61710;BME280;47633;51.494;5.386;2023-02-03T06:36:16;102447.69;;;18.63;42.07
61710;BME280;47633;51.494;5.386;2023-02-03T06:38:41;102422.94;;;18.64;42.03
61710;BME280;47633;51.494;5.386;2023-02-03T06:41:06;102425.31;;;18.68;41.91
61710;BME280;47633;51.494;5.386;2023-02-03T06:43:32;102432.81;;;18.76;42.01
61710;BME280;47633;51.494;5.386;2023-02-03T06:45:57;102444.03;;;18.80;41.76
61710;BME280;47633;51.494;5.386;2023-02-03T06:48:23;102441.38;;;18.80;42.01
61710;BME280;47633;51.494;5.386;2023-02-03T06:50:48;102443.78;;;18.84;41.97
61710;BME280;47633;51.494;5.386;2023-02-03T06:53:13;102443.53;;;18.89;42.06
61710;BME280;47633;51.494;5.386;2023-02-03T06:55:38;102425.22;;;18.86;42.13
61710;BME280;47633;51.494;5.386;2023-02-03T06:58:04;102429.66;;;18.85;42.15
61710;BME280;47633;51.494;5.386;2023-02-03T07:00:29;102432.88;;;18.91;42.52
61710;BME280;47633;51.494;5.386;2023-02-03T07:02:56;102422.38;;;18.89;42.19
61710;BME280;47633;51.494;5.386;2023-02-03T07:05:23;102423.41;;;18.87;42.30
61710;BME280;47633;51.494;5.386;2023-02-03T07:07:49;102427.94;;;18.84;42.53
61710;BME280;47633;51.494;5.386;2023-02-03T07:10:15;102438.25;;;18.89;42.42
61710;BME280;47633;51.494;5.386;2023-02-03T07:12:40;102456.63;;;18.91;42.18
61710;BME280;47633;51.494;5.386;2023-02-03T07:15:06;102449.66;;;18.90;42.44
61710;BME280;47633;51.494;5.386;2023-02-03T07:17:31;102465.50;;;18.90;42.39
61710;BME280;47633;51.494;5.386;2023-02-03T07:19:57;102479.66;;;18.89;42.44
61710;BME280;47633;51.494;5.386;2023-02-03T07:22:22;102472.66;;;18.88;42.33
61710;BME280;47633;51.494;5.386;2023-02-03T07:24:48;102465.66;;;18.87;42.21
61710;BME280;47633;51.494;5.386;2023-02-03T07:27:13;102467.38;;;18.88;42.45
61710;BME280;47633;51.494;5.386;2023-02-03T07:29:38;102480.50;;;18.89;42.62
61710;BME280;47633;51.494;5.386;2023-02-03T07:32:04;102466.47;;;18.89;42.67
61710;BME280;47633;51.494;5.386;2023-02-03T07:34:29;102466.63;;;18.85;42.45
61710;BME280;47633;51.494;5.386;2023-02-03T07:36:55;102473.41;;;18.90;42.50
61710;BME280;47633;51.494;5.386;2023-02-03T07:39:20;102469.09;;;18.89;42.92
61710;BME280;47633;51.494;5.386;2023-02-03T07:41:46;102458.72;;;18.85;42.78
61710;BME280;47633;51.494;5.386;2023-02-03T07:44:11;102470.59;;;18.93;42.60
61710;BME280;47633;51.494;5.386;2023-02-03T07:46:36;102478.69;;;18.90;42.83
61710;BME280;47633;51.494;5.386;2023-02-03T07:49:05;102475.97;;;18.91;42.60
61710;BME280;47633;51.494;5.386;2023-02-03T07:51:30;102484.78;;;18.92;42.66
61710;BME280;47633;51.494;5.386;2023-02-03T07:53:56;102475.22;;;18.89;42.72
61710;BME280;47633;51.494;5.386;2023-02-03T07:56:21;102470.88;;;18.88;42.79
61710;BME280;47633;51.494;5.386;2023-02-03T07:58:46;102472.56;;;18.89;42.62
61710;BME280;47633;51.494;5.386;2023-02-03T08:01:19;102474.66;;;18.84;42.81
61710;BME280;47633;51.494;5.386;2023-02-03T08:03:45;102479.66;;;18.89;42.61
61710;BME280;47633;51.494;5.386;2023-02-03T08:06:10;102466.72;;;18.84;42.57
61710;BME280;47633;51.494;5.386;2023-02-03T08:08:35;102471.91;;;18.85;42.77
61710;BME280;47633;51.494;5.386;2023-02-03T08:11:01;102466.88;;;18.81;42.77
61710;BME280;47633;51.494;5.386;2023-02-03T08:13:26;102499.25;;;18.84;42.49
61710;BME280;47633;51.494;5.386;2023-02-03T08:15:52;102497.56;;;18.83;42.68
61710;BME280;47633;51.494;5.386;2023-02-03T08:18:17;102486.28;;;18.80;42.78
61710;BME280;47633;51.494;5.386;2023-02-03T08:20:43;102505.47;;;18.83;42.59
61710;BME280;47633;51.494;5.386;2023-02-03T08:23:08;102502.84;;;18.83;42.68
61710;BME280;47633;51.494;5.386;2023-02-03T08:25:33;102517.75;;;18.84;42.93
61710;BME280;47633;51.494;5.386;2023-02-03T08:27:58;102518.69;;;18.83;43.13
61710;BME280;47633;51.494;5.386;2023-02-03T08:30:24;102515.16;;;18.83;42.69
61710;BME280;47633;51.494;5.386;2023-02-03T08:32:50;102511.63;;;18.84;42.83
61710;BME280;47633;51.494;5.386;2023-02-03T08:35:16;102515.16;;;18.83;42.92
61710;BME280;47633;51.494;5.386;2023-02-03T08:37:41;102510.06;;;18.80;42.78
61710;BME280;47633;51.494;5.386;2023-02-03T08:40:07;102518.78;;;18.82;42.93
61710;BME280;47633;51.494;5.386;2023-02-03T08:42:33;102538.09;;;18.82;42.65
61710;BME280;47633;51.494;5.386;2023-02-03T08:44:58;102531.84;;;18.85;42.83
61710;BME280;47633;51.494;5.386;2023-02-03T08:47:24;102545.88;;;18.85;42.62
61710;BME280;47633;51.494;5.386;2023-02-03T08:49:49;102544.91;;;18.87;42.55
61710;BME280;47633;51.494;5.386;2023-02-03T08:52:15;102536.91;;;18.88;42.72
61710;BME280;47633;51.494;5.386;2023-02-03T08:54:41;102550.03;;;18.90;42.83
61710;BME280;47633;51.494;5.386;2023-02-03T08:57:07;102545.34;;;18.95;42.68
61710;BME280;47633;51.494;5.386;2023-02-03T08:59:32;102542.72;;;18.95;42.82
61710;BME280;47633;51.494;5.386;2023-02-03T09:02:03;102541.94;;;18.93;42.57
61710;BME280;47633;51.494;5.386;2023-02-03T09:04:29;102547.91;;;18.96;42.81
61710;BME280;47633;51.494;5.386;2023-02-03T09:06:55;102542.72;;;18.95;42.79
61710;BME280;47633;51.494;5.386;2023-02-03T09:09:21;102538.19;;;18.97;42.81
61710;BME280;47633;51.494;5.386;2023-02-03T09:11:46;102532.91;;;18.97;42.50
61710;BME280;47633;51.494;5.386;2023-02-03T09:14:12;102536.38;;;18.97;42.55
61710;BME280;47633;51.494;5.386;2023-02-03T09:16:38;102542.53;;;18.98;42.56
61710;BME280;47633;51.494;5.386;2023-02-03T09:19:03;102534.69;;;18.96;42.84
61710;BME280;47633;51.494;5.386;2023-02-03T09:21:28;102527.69;;;18.95;42.31
61710;BME280;47633;51.494;5.386;2023-02-03T09:23:54;102540.72;;;18.98;42.73
61710;BME280;47633;51.494;5.386;2023-02-03T09:26:19;102540.06;;;18.95;42.66
61710;BME280;47633;51.494;5.386;2023-02-03T09:28:44;102542.63;;;18.96;42.67
61710;BME280;47633;51.494;5.386;2023-02-03T09:31:14;102538.44;;;18.92;42.80
61710;BME280;47633;51.494;5.386;2023-02-03T09:33:42;102536.56;;;18.94;42.72
61710;BME280;47633;51.494;5.386;2023-02-03T09:36:08;102564.50;;;18.98;42.54
61710;BME280;47633;51.494;5.386;2023-02-03T09:38:34;102564.50;;;18.98;42.91
61710;BME280;47633;51.494;5.386;2023-02-03T09:41:10;102558.75;;;18.92;42.87
61710;BME280;47633;51.494;5.386;2023-02-03T09:47:26;102589.31;;;18.96;42.68
61710;BME280;47633;51.494;5.386;2023-02-03T09:49:38;102575.53;;;18.91;42.84
61710;BME280;47633;51.494;5.386;2023-02-03T09:52:13;102576.19;;;18.94;42.59
61710;BME280;47633;51.494;5.386;2023-02-03T09:55:02;102586.75;;;18.94;42.70
61710;BME280;47633;51.494;5.386;2023-02-03T09:57:39;102585.06;;;18.93;42.71
61710;BME280;47633;51.494;5.386;2023-02-03T10:00:18;102582.59;;;18.90;42.86
61710;BME280;47633;51.494;5.386;2023-02-03T10:02:52;102589.47;;;18.93;42.76
61710;BME280;47633;51.494;5.386;2023-02-03T10:10:40;102591.69;;;19.00;42.70
61710;BME280;47633;51.494;5.386;2023-02-03T10:15:51;102578.66;;;18.97;43.01
61710;BME280;47633;51.494;5.386;2023-02-03T10:18:30;102566.41;;;18.96;43.02
61710;BME280;47633;51.494;5.386;2023-02-03T10:21:16;102568.00;;;18.99;43.02
61710;BME280;47633;51.494;5.386;2023-02-03T10:23:44;102584.72;;;18.99;42.89
61710;BME280;47633;51.494;5.386;2023-02-03T10:26:20;102588.38;;;18.97;43.06
61710;BME280;47633;51.494;5.386;2023-02-03T10:28:58;102576.88;;;18.98;42.98
61710;BME280;47633;51.494;5.386;2023-02-03T10:31:27;102600.66;;;18.98;42.81
61710;BME280;47633;51.494;5.386;2023-02-03T10:34:14;102585.56;;;19.00;42.82
61710;BME280;47633;51.494;5.386;2023-02-03T10:37:02;102575.09;;;18.98;42.91
61710;BME280;47633;51.494;5.386;2023-02-03T10:39:38;102568.09;;;18.97;42.79
61710;BME280;47633;51.494;5.386;2023-02-03T10:42:05;102565.44;;;18.97;42.84
61710;BME280;47633;51.494;5.386;2023-02-03T10:44:41;102583.09;;;18.97;43.02
61710;BME280;47633;51.494;5.386;2023-02-03T10:47:24;102569.22;;;18.93;42.87
61710;BME280;47633;51.494;5.386;2023-02-03T10:49:53;102580.63;;;18.94;42.59
61710;BME280;47633;51.494;5.386;2023-02-03T10:52:33;102575.84;;;19.00;42.86
61710;BME280;47633;51.494;5.386;2023-02-03T10:55:07;102582.84;;;19.01;42.89
61710;BME280;47633;51.494;5.386;2023-02-03T10:57:52;102574.25;;;18.98;42.89
61710;BME280;47633;51.494;5.386;2023-02-03T11:02:54;102582.75;;;19.03;43.00
61710;BME280;47633;51.494;5.386;2023-02-03T11:05:21;102571.31;;;19.02;42.99
61710;BME280;47633;51.494;5.386;2023-02-03T11:07:50;102581.63;;;19.07;42.61
61710;BME280;47633;51.494;5.386;2023-02-03T11:10:32;102588.69;;;19.07;42.92
61710;BME280;47633;51.494;5.386;2023-02-03T11:13:24;102582.47;;;19.08;42.92
61710;BME280;47633;51.494;5.386;2023-02-03T11:16:00;102594.75;;;19.09;42.82
61710;BME280;47633;51.494;5.386;2023-02-03T11:21:15;102594.56;;;19.12;42.99
61710;BME280;47633;51.494;5.386;2023-02-03T11:26:44;102583.91;;;19.13;43.14
61710;BME280;47633;51.494;5.386;2023-02-03T11:29:28;102586.47;;;19.15;43.14
61710;BME280;47633;51.494;5.386;2023-02-03T11:31:56;102587.34;;;19.15;43.30
61710;BME280;47633;51.494;5.386;2023-02-03T11:34:28;102595.34;;;19.14;43.40
61710;BME280;47633;51.494;5.386;2023-02-03T11:36:55;102593.53;;;19.14;43.36
61710;BME280;47633;51.494;5.386;2023-02-03T11:39:28;102577.78;;;19.13;43.50
61710;BME280;47633;51.494;5.386;2023-02-03T11:41:54;102575.88;;;19.15;43.38
61710;BME280;47633;51.494;5.386;2023-02-03T11:44:29;102584.94;;;19.11;43.62
61710;BME280;47633;51.494;5.386;2023-02-03T11:47:01;102570.78;;;19.12;43.35
61710;BME280;47633;51.494;5.386;2023-02-03T11:52:18;102591.84;;;19.13;43.41
61710;BME280;47633;51.494;5.386;2023-02-03T11:54:58;102586.72;;;19.10;43.50
61710;BME280;47633;51.494;5.386;2023-02-03T12:05:54;102601.66;;;19.11;43.35
61710;BME280;47633;51.494;5.386;2023-02-03T12:11:37;102583.81;;;19.15;43.64
61710;BME280;47633;51.494;5.386;2023-02-03T12:17:20;102599.59;;;19.16;43.97
61710;BME280;47633;51.494;5.386;2023-02-03T12:20:35;102585.53;;;19.16;43.66
61710;BME280;47633;51.494;5.386;2023-02-03T12:23:25;102586.47;;;19.15;43.74
61710;BME280;47633;51.494;5.386;2023-02-03T12:26:04;102591.09;;;19.11;43.53
61710;BME280;47633;51.494;5.386;2023-02-03T12:28:42;102596.19;;;19.14;43.42
61710;BME280;47633;51.494;5.386;2023-02-03T12:31:31;102591.75;;;19.15;43.61
61710;BME280;47633;51.494;5.386;2023-02-03T12:34:18;102589.19;;;19.13;43.54
61710;BME280;47633;51.494;5.386;2023-02-03T12:36:50;102587.59;;;19.11;43.45
61710;BME280;47633;51.494;5.386;2023-02-03T12:39:32;102590.41;;;19.08;43.65
61710;BME280;47633;51.494;5.386;2023-02-03T12:42:12;102602.50;;;19.12;43.42
61710;BME280;47633;51.494;5.386;2023-02-03T12:44:46;102595.69;;;19.08;43.66
61710;BME280;47633;51.494;5.386;2023-02-03T12:49:52;102598.66;;;19.17;43.61
61710;BME280;47633;51.494;5.386;2023-02-03T12:57:53;102606.28;;;19.08;43.92
61710;BME280;47633;51.494;5.386;2023-02-03T13:03:10;102610.00;;;19.03;43.84
61710;BME280;47633;51.494;5.386;2023-02-03T13:05:42;102607.28;;;19.05;43.96
61710;BME280;47633;51.494;5.386;2023-02-03T13:08:15;102623.88;;;19.07;43.82
61710;BME280;47633;51.494;5.386;2023-02-03T13:10:58;102625.69;;;19.07;44.31
61710;BME280;47633;51.494;5.386;2023-02-03T13:13:39;102599.75;;;19.13;44.02
61710;BME280;47633;51.494;5.386;2023-02-03T13:16:08;102617.31;;;19.14;44.12
61710;BME280;47633;51.494;5.386;2023-02-03T13:18:37;102617.59;;;19.10;44.18
61710;BME280;47633;51.494;5.386;2023-02-03T13:21:04;102612.31;;;19.10;44.22
61710;BME280;47633;51.494;5.386;2023-02-03T13:23:29;102617.50;;;19.11;44.24
61710;BME280;47633;51.494;5.386;2023-02-03T13:26:09;102622.69;;;19.13;44.04
61710;BME280;47633;51.494;5.386;2023-02-03T13:39:35;102642.66;;;19.18;44.36
61710;BME280;47633;51.494;5.386;2023-02-03T13:44:39;102638.31;;;19.17;44.24
61710;BME280;47633;51.494;5.386;2023-02-03T13:47:14;102626.19;;;19.13;44.19
61710;BME280;47633;51.494;5.386;2023-02-03T13:49:41;102639.31;;;19.15;44.07
61710;BME280;47633;51.494;5.386;2023-02-03T13:52:25;102634.91;;;19.15;44.16
61710;BME280;47633;51.494;5.386;2023-02-03T13:54:52;102641.78;;;19.18;44.10
61710;BME280;47633;51.494;5.386;2023-02-03T13:57:27;102641.13;;;19.14;44.15
61710;BME280;47633;51.494;5.386;2023-02-03T13:59:55;102641.03;;;19.16;44.17
61710;BME280;47633;51.494;5.386;2023-02-03T14:07:37;102651.44;;;19.19;44.40
61710;BME280;47633;51.494;5.386;2023-02-03T14:18:01;102654.91;;;19.19;44.34
61710;BME280;47633;51.494;5.386;2023-02-03T14:23:14;102648.88;;;19.17;44.67
61710;BME280;47633;51.494;5.386;2023-02-03T14:25:48;102649.78;;;19.16;44.62
61710;BME280;47633;51.494;5.386;2023-02-03T14:28:19;102640.34;;;19.12;44.94
61710;BME280;47633;51.494;5.386;2023-02-03T14:38:58;102636.00;;;19.11;44.81
61710;BME280;47633;51.494;5.386;2023-02-03T14:41:43;102646.50;;;19.13;44.92
61710;BME280;47633;51.494;5.386;2023-02-03T14:44:38;102656.03;;;19.15;44.85
61710;BME280;47633;51.494;5.386;2023-02-03T14:47:13;102658.69;;;19.15;44.90